Saturday, February 06, 2016
09:22 UTC
  |  Log In   |  Register Free
Airport Search:

Madison Municipal Airport
(KIMS)

Madison Municipal Airport Diagram
No Airport Diagram Available

FAA data valid effective Dec 10 2015 - Feb 4 2016 (unless otherwise noted).

 
 
 
 
 
 
 
 
 
 
 
 
 
 
Current Aviation Weather for KIMS

Weather Summary


Current weather conditions are not available for IMS - The nearest NOAA weather station is at LOU, (33.3 nm SW from IMS)

The most recent METAR observation for IMS was updated at: 12:53 UTC
METAR for KIMS is not available. Closest METAR is for KLOU
KIMS  (most recent observation was updatred at 60:85 UTC)
060852Z AUTO 00000KT 7SM CLR M02/M04 A3035 RMK AO1

KLOU  (33.3 nm NE)   (most recent observation was updated at 60:85 UTC)
060853Z AUTO 00000KT 10SM CLR M02/M06 A3035 RMK AO2 SLP282 T10171056 56003

TAF for KIMS is not available.
GlobalAir.com is loading additional information.
 Current Weather at LOU
31.0 F° (-0.6 C°)

North winds at 0.0 mph
Pressure:
30.36 in
Humidity:
72%
Wind:
North at 0.0 mph
Dew Point:
23.0 F° (-5.0 C°)
Visibility:
10.00 mi
IMS NOAA Radar




Find All Airport Services Find A Hotel Find A Rental Car Find A Golf Course Find A Restaurant $100 Hamburger



Airport Weather Forecast for KIMS

Translated METAR for KIMS (0852 UTC)
METAR:
KIMS 060852Z AUTO 00000KT 7SM CLR M02/M04 A3035 RMK AO1
Conditions at:
KIMS (Madison Muni, IN) observed 0852 UTC 06 February 2016
Temperature:
-2°C (28.4°F)
Dewpoint:
-4°C (24.8°F) [RH = 86.2]
Pressure:
30.35 inches Hg (1027.8 mb)
Winds:
from the N (000 degrees) at 0 mph (0 knots: 0 m/s)
Visibility:
7 mile(s)
Ceiling:
at least 12,000 feet AGL
Clouds:
Clear below 12,000 feet AGL
Remarks:
site is un-manned
site is automated and does NOT have a precipitation sensor

Translated TAF for TAF for IMS is not available. Refer to local area forecast.
FBO's on the Field
FBO Company Facility Photos Services Transportation Aviation Fuel Prices: Prices include tax
Catering Weather Repair Courtesy Rental Type 100LL JetA JetA+ MOGAS 8087
 
City of Madison

Currently rated 5 by 1 person
FS:Shell
Last Updated: Feb-02
Login to update fuel prices
SS:
Contact City of MadisonMore FBO Information
 
Add another FBO Facility Photos Catering Weather Repair Courtesy Rental Type 100LL JetA JetA+ MOGAS 8087
Services Transportation Aviation Fuel Prices: Prices include tax


model-print
model-print
model-print
model-print